sensor_id;sensor_type;location;lat;lon;timestamp;pressure;altitude;pressure_sealevel;temperature;humidity
9889;BME280;4983;42.112;24.738;2023-09-08T00:00:41;100081.84;;;22.12;97.93
9889;BME280;4983;42.112;24.738;2023-09-08T00:03:08;100072.69;;;22.11;93.62
9889;BME280;4983;42.112;24.738;2023-09-08T00:05:35;100079.06;;;22.18;94.69
9889;BME280;4983;42.112;24.738;2023-09-08T00:08:02;100075.06;;;22.21;95.83
9889;BME280;4983;42.112;24.738;2023-09-08T00:10:31;100078.22;;;22.11;96.79
9889;BME280;4983;42.112;24.738;2023-09-08T00:12:57;100067.66;;;22.21;96.32
9889;BME280;4983;42.112;24.738;2023-09-08T00:15:24;100066.97;;;22.13;96.62
9889;BME280;4983;42.112;24.738;2023-09-08T00:17:53;100063.56;;;22.11;92.98
9889;BME280;4983;42.112;24.738;2023-09-08T00:20:22;100076.72;;;22.09;95.88
9889;BME280;4983;42.112;24.738;2023-09-08T00:22:49;100077.34;;;22.04;95.44
9889;BME280;4983;42.112;24.738;2023-09-08T00:25:16;100086.19;;;21.80;98.70
9889;BME280;4983;42.112;24.738;2023-09-08T00:27:43;100077.47;;;21.83;96.81
9889;BME280;4983;42.112;24.738;2023-09-08T00:30:11;100075.63;;;21.97;95.98
9889;BME280;4983;42.112;24.738;2023-09-08T00:32:38;100083.00;;;21.83;99.19
9889;BME280;4983;42.112;24.738;2023-09-08T00:35:07;100074.75;;;21.90;98.05
9889;BME280;4983;42.112;24.738;2023-09-08T00:37:34;100074.75;;;21.90;98.51
9889;BME280;4983;42.112;24.738;2023-09-08T00:40:01;100080.63;;;21.74;98.69
9889;BME280;4983;42.112;24.738;2023-09-08T00:42:28;100083.03;;;21.90;97.62
9889;BME280;4983;42.112;24.738;2023-09-08T00:44:55;100077.28;;;21.85;97.39
9889;BME280;4983;42.112;24.738;2023-09-08T00:47:22;100085.63;;;21.64;99.00
9889;BME280;4983;42.112;24.738;2023-09-08T00:49:49;100091.22;;;21.70;100.00
9889;BME280;4983;42.112;24.738;2023-09-08T00:52:18;100085.75;;;21.83;99.10
9889;BME280;4983;42.112;24.738;2023-09-08T00:54:46;100089.53;;;21.76;99.89
9889;BME280;4983;42.112;24.738;2023-09-08T00:57:13;100078.84;;;21.60;100.00
9889;BME280;4983;42.112;24.738;2023-09-08T00:59:42;100079.22;;;21.57;100.00
9889;BME280;4983;42.112;24.738;2023-09-08T01:02:10;100078.03;;;21.66;100.00
9889;BME280;4983;42.112;24.738;2023-09-08T01:04:36;100067.28;;;21.71;100.00
9889;BME280;4983;42.112;24.738;2023-09-08T01:07:06;100071.91;;;21.70;100.00
9889;BME280;4983;42.112;24.738;2023-09-08T01:09:34;100077.28;;;21.51;100.00
9889;BME280;4983;42.112;24.738;2023-09-08T01:12:03;100079.66;;;21.54;100.00
9889;BME280;4983;42.112;24.738;2023-09-08T01:14:30;100085.56;;;21.51;100.00
9889;BME280;4983;42.112;24.738;2023-09-08T01:16:57;100068.22;;;21.57;100.00
9889;BME280;4983;42.112;24.738;2023-09-08T01:19:25;100064.03;;;21.67;100.00
9889;BME280;4983;42.112;24.738;2023-09-08T01:24:41;100067.97;;;21.52;100.00
9889;BME280;4983;42.112;24.738;2023-09-08T01:27:18;100059.03;;;21.43;100.00
9889;BME280;4983;42.112;24.738;2023-09-08T01:29:49;100062.22;;;21.47;100.00
9889;BME280;4983;42.112;24.738;2023-09-08T01:32:17;100064.34;;;21.45;100.00
9889;BME280;4983;42.112;24.738;2023-09-08T01:34:44;100057.13;;;21.44;100.00
9889;BME280;4983;42.112;24.738;2023-09-08T01:37:11;100064.56;;;21.10;100.00
9889;BME280;4983;42.112;24.738;2023-09-08T01:39:38;100066.13;;;20.91;100.00
9889;BME280;4983;42.112;24.738;2023-09-08T01:42:07;100061.91;;;20.74;100.00
9889;BME280;4983;42.112;24.738;2023-09-08T01:44:35;100070.81;;;20.76;100.00
9889;BME280;4983;42.112;24.738;2023-09-08T01:47:02;100066.25;;;20.83;100.00
9889;BME280;4983;42.112;24.738;2023-09-08T01:49:29;100067.44;;;21.02;100.00
9889;BME280;4983;42.112;24.738;2023-09-08T01:51:56;100067.63;;;20.73;100.00
9889;BME280;4983;42.112;24.738;2023-09-08T01:54:23;100070.00;;;20.82;100.00
9889;BME280;4983;42.112;24.738;2023-09-08T01:56:50;100070.34;;;20.66;100.00
9889;BME280;4983;42.112;24.738;2023-09-08T01:59:17;100069.00;;;20.83;100.00
9889;BME280;4983;42.112;24.738;2023-09-08T02:01:46;100075.56;;;20.61;100.00
9889;BME280;4983;42.112;24.738;2023-09-08T02:04:13;100070.22;;;20.53;100.00
9889;BME280;4983;42.112;24.738;2023-09-08T02:06:39;100076.31;;;20.76;100.00
9889;BME280;4983;42.112;24.738;2023-09-08T02:09:07;100072.09;;;20.53;100.00
9889;BME280;4983;42.112;24.738;2023-09-08T02:11:35;100073.66;;;20.62;100.00
9889;BME280;4983;42.112;24.738;2023-09-08T02:14:03;100073.28;;;20.65;100.00
9889;BME280;4983;42.112;24.738;2023-09-08T02:16:30;100066.25;;;20.62;100.00
9889;BME280;4983;42.112;24.738;2023-09-08T02:18:58;100060.94;;;20.82;100.00
9889;BME280;4983;42.112;24.738;2023-09-08T02:21:25;100055.94;;;20.43;100.00
9889;BME280;4983;42.112;24.738;2023-09-08T02:23:51;100067.91;;;20.57;100.00
9889;BME280;4983;42.112;24.738;2023-09-08T02:26:18;100058.44;;;20.38;100.00
9889;BME280;4983;42.112;24.738;2023-09-08T02:28:45;100060.69;;;20.56;100.00
9889;BME280;4983;42.112;24.738;2023-09-08T02:31:12;100059.66;;;20.57;100.00
9889;BME280;4983;42.112;24.738;2023-09-08T02:33:39;100060.56;;;20.43;100.00
9889;BME280;4983;42.112;24.738;2023-09-08T02:36:08;100055.06;;;20.64;100.00
9889;BME280;4983;42.112;24.738;2023-09-08T02:38:35;100052.13;;;20.44;100.00
9889;BME280;4983;42.112;24.738;2023-09-08T02:41:03;100045.31;;;20.40;100.00
9889;BME280;4983;42.112;24.738;2023-09-08T02:43:30;100051.19;;;20.58;100.00
9889;BME280;4983;42.112;24.738;2023-09-08T02:45:57;100053.03;;;20.51;100.00
9889;BME280;4983;42.112;24.738;2023-09-08T02:48:25;100049.69;;;20.56;100.00
9889;BME280;4983;42.112;24.738;2023-09-08T02:50:52;100051.75;;;20.47;100.00
9889;BME280;4983;42.112;24.738;2023-09-08T02:53:23;100043.50;;;20.47;100.00
9889;BME280;4983;42.112;24.738;2023-09-08T02:55:55;100046.50;;;20.52;100.00
9889;BME280;4983;42.112;24.738;2023-09-08T02:58:22;100046.72;;;20.51;100.00
9889;BME280;4983;42.112;24.738;2023-09-08T03:00:49;100050.63;;;20.42;100.00
9889;BME280;4983;42.112;24.738;2023-09-08T03:03:17;100044.81;;;20.30;100.00
9889;BME280;4983;42.112;24.738;2023-09-08T03:05:44;100053.97;;;20.37;100.00
9889;BME280;4983;42.112;24.738;2023-09-08T03:08:11;100056.59;;;20.45;100.00
9889;BME280;4983;42.112;24.738;2023-09-08T03:10:40;100049.59;;;20.43;100.00
9889;BME280;4983;42.112;24.738;2023-09-08T03:13:07;100052.78;;;20.46;100.00
9889;BME280;4983;42.112;24.738;2023-09-08T03:15:34;100055.16;;;20.49;100.00
9889;BME280;4983;42.112;24.738;2023-09-08T03:18:01;100049.66;;;20.28;100.00
9889;BME280;4983;42.112;24.738;2023-09-08T03:20:28;100053.72;;;20.32;100.00
9889;BME280;4983;42.112;24.738;2023-09-08T03:22:55;100059.59;;;20.29;100.00
9889;BME280;4983;42.112;24.738;2023-09-08T03:25:22;100057.41;;;20.18;100.00
9889;BME280;4983;42.112;24.738;2023-09-08T03:27:50;100065.94;;;20.09;100.00
9889;BME280;4983;42.112;24.738;2023-09-08T03:30:17;100060.53;;;20.15;100.00
9889;BME280;4983;42.112;24.738;2023-09-08T03:32:44;100056.25;;;20.13;100.00
9889;BME280;4983;42.112;24.738;2023-09-08T03:35:11;100057.06;;;20.28;100.00
9889;BME280;4983;42.112;24.738;2023-09-08T03:37:38;100048.66;;;20.15;100.00
9889;BME280;4983;42.112;24.738;2023-09-08T03:40:06;100059.81;;;20.28;100.00
9889;BME280;4983;42.112;24.738;2023-09-08T03:42:33;100057.03;;;20.49;100.00
9889;BME280;4983;42.112;24.738;2023-09-08T03:45:03;100061.63;;;20.21;100.00
9889;BME280;4983;42.112;24.738;2023-09-08T03:47:30;100062.91;;;20.04;100.00
9889;BME280;4983;42.112;24.738;2023-09-08T03:49:57;100060.88;;;20.27;100.00
9889;BME280;4983;42.112;24.738;2023-09-08T03:52:24;100059.34;;;20.45;100.00
9889;BME280;4983;42.112;24.738;2023-09-08T03:54:51;100051.84;;;20.33;100.00
9889;BME280;4983;42.112;24.738;2023-09-08T03:57:18;100064.19;;;20.43;100.00
9889;BME280;4983;42.112;24.738;2023-09-08T03:59:45;100068.19;;;20.41;100.00
9889;BME280;4983;42.112;24.738;2023-09-08T04:02:14;100068.91;;;20.49;100.00
9889;BME280;4983;42.112;24.738;2023-09-08T04:04:40;100061.56;;;20.56;100.00
9889;BME280;4983;42.112;24.738;2023-09-08T04:07:07;100059.28;;;20.39;100.00
9889;BME280;4983;42.112;24.738;2023-09-08T04:09:34;100073.22;;;20.37;100.00
9889;BME280;4983;42.112;24.738;2023-09-08T04:12:01;100063.50;;;20.41;100.00
9889;BME280;4983;42.112;24.738;2023-09-08T04:14:28;100067.31;;;20.40;100.00
9889;BME280;4983;42.112;24.738;2023-09-08T04:16:55;100068.97;;;20.35;100.00
9889;BME280;4983;42.112;24.738;2023-09-08T04:19:24;100070.47;;;20.16;100.00
9889;BME280;4983;42.112;24.738;2023-09-08T04:21:51;100071.28;;;20.31;100.00
9889;BME280;4983;42.112;24.738;2023-09-08T04:24:17;100076.88;;;20.23;100.00
9889;BME280;4983;42.112;24.738;2023-09-08T04:26:45;100076.63;;;20.18;100.00
9889;BME280;4983;42.112;24.738;2023-09-08T04:29:12;100083.81;;;20.40;100.00
9889;BME280;4983;42.112;24.738;2023-09-08T04:31:39;100076.50;;;20.47;100.00
9889;BME280;4983;42.112;24.738;2023-09-08T04:34:06;100077.28;;;20.20;100.00
9889;BME280;4983;42.112;24.738;2023-09-08T04:36:34;100078.97;;;20.21;100.00
9889;BME280;4983;42.112;24.738;2023-09-08T04:39:01;100090.81;;;20.43;100.00
9889;BME280;4983;42.112;24.738;2023-09-08T04:41:28;100089.91;;;20.36;100.00
9889;BME280;4983;42.112;24.738;2023-09-08T04:43:55;100091.97;;;20.48;100.00
9889;BME280;4983;42.112;24.738;2023-09-08T04:46:23;100092.94;;;20.41;100.00
9889;BME280;4983;42.112;24.738;2023-09-08T04:48:50;100094.78;;;20.34;100.00
9889;BME280;4983;42.112;24.738;2023-09-08T04:51:17;100095.47;;;20.63;100.00
9889;BME280;4983;42.112;24.738;2023-09-08T04:53:45;100096.00;;;20.31;100.00
9889;BME280;4983;42.112;24.738;2023-09-08T04:56:13;100093.84;;;20.48;100.00
9889;BME280;4983;42.112;24.738;2023-09-08T04:58:40;100092.41;;;20.52;100.00
9889;BME280;4983;42.112;24.738;2023-09-08T05:01:07;100095.91;;;20.67;100.00
9889;BME280;4983;42.112;24.738;2023-09-08T05:03:34;100086.69;;;20.74;100.00
9889;BME280;4983;42.112;24.738;2023-09-08T05:06:01;100097.38;;;20.63;100.00
9889;BME280;4983;42.112;24.738;2023-09-08T05:08:28;100095.81;;;20.75;100.00
9889;BME280;4983;42.112;24.738;2023-09-08T05:10:56;100095.19;;;20.79;100.00
9889;BME280;4983;42.112;24.738;2023-09-08T05:13:23;100101.72;;;20.99;100.00
9889;BME280;4983;42.112;24.738;2023-09-08T05:15:52;100102.81;;;20.77;100.00
9889;BME280;4983;42.112;24.738;2023-09-08T05:18:25;100098.63;;;20.60;100.00
9889;BME280;4983;42.112;24.738;2023-09-08T05:20:52;100101.50;;;20.73;100.00
9889;BME280;4983;42.112;24.738;2023-09-08T05:23:19;100100.09;;;20.83;100.00
9889;BME280;4983;42.112;24.738;2023-09-08T05:25:46;100102.19;;;21.02;100.00
9889;BME280;4983;42.112;24.738;2023-09-08T05:28:14;100097.88;;;21.21;100.00
9889;BME280;4983;42.112;24.738;2023-09-08T05:30:41;100104.19;;;21.49;100.00
9889;BME280;4983;42.112;24.738;2023-09-08T05:33:08;100099.63;;;21.62;100.00
9889;BME280;4983;42.112;24.738;2023-09-08T05:35:35;100101.28;;;21.57;100.00
9889;BME280;4983;42.112;24.738;2023-09-08T05:38:02;100100.88;;;21.60;100.00
9889;BME280;4983;42.112;24.738;2023-09-08T05:40:30;100090.19;;;21.84;99.56
9889;BME280;4983;42.112;24.738;2023-09-08T05:42:58;100103.94;;;21.71;98.56
9889;BME280;4983;42.112;24.738;2023-09-08T05:45:26;100112.47;;;21.89;100.00
9889;BME280;4983;42.112;24.738;2023-09-08T05:47:53;100110.41;;;21.98;100.00
9889;BME280;4983;42.112;24.738;2023-09-08T05:50:20;100117.84;;;22.04;100.00
9889;BME280;4983;42.112;24.738;2023-09-08T05:52:47;100124.88;;;22.19;100.00
9889;BME280;4983;42.112;24.738;2023-09-08T05:55:14;100118.78;;;22.30;100.00
9889;BME280;4983;42.112;24.738;2023-09-08T05:57:40;100118.81;;;22.37;100.00
9889;BME280;4983;42.112;24.738;2023-09-08T06:00:08;100127.25;;;22.29;100.00
9889;BME280;4983;42.112;24.738;2023-09-08T06:02:36;100132.78;;;22.22;100.00
9889;BME280;4983;42.112;24.738;2023-09-08T06:05:03;100131.53;;;22.38;100.00
9889;BME280;4983;42.112;24.738;2023-09-08T06:07:31;100131.78;;;22.43;100.00
9889;BME280;4983;42.112;24.738;2023-09-08T06:09:58;100121.19;;;22.46;100.00
9889;BME280;4983;42.112;24.738;2023-09-08T06:12:25;100122.50;;;22.63;100.00
9889;BME280;4983;42.112;24.738;2023-09-08T06:14:52;100125.47;;;22.88;100.00
9889;BME280;4983;42.112;24.738;2023-09-08T06:17:19;100122.72;;;22.81;100.00
9889;BME280;4983;42.112;24.738;2023-09-08T06:19:47;100135.03;;;23.11;100.00
9889;BME280;4983;42.112;24.738;2023-09-08T06:22:14;100127.16;;;23.08;100.00
9889;BME280;4983;42.112;24.738;2023-09-08T06:24:42;100122.09;;;23.31;100.00
9889;BME280;4983;42.112;24.738;2023-09-08T06:27:09;100140.81;;;23.36;100.00
9889;BME280;4983;42.112;24.738;2023-09-08T06:29:37;100140.53;;;23.57;100.00
9889;BME280;4983;42.112;24.738;2023-09-08T06:32:05;100142.47;;;23.50;100.00
9889;BME280;4983;42.112;24.738;2023-09-08T06:34:33;100145.41;;;23.61;100.00
9889;BME280;4983;42.112;24.738;2023-09-08T06:37:02;100142.44;;;23.69;98.62
9889;BME280;4983;42.112;24.738;2023-09-08T06:39:29;100135.84;;;23.77;97.46
9889;BME280;4983;42.112;24.738;2023-09-08T06:41:56;100145.41;;;23.68;98.44
9889;BME280;4983;42.112;24.738;2023-09-08T06:44:23;100150.47;;;23.97;98.86
9889;BME280;4983;42.112;24.738;2023-09-08T06:46:50;100147.34;;;24.24;98.06
9889;BME280;4983;42.112;24.738;2023-09-08T06:49:17;100142.63;;;24.38;97.93
9889;BME280;4983;42.112;24.738;2023-09-08T06:51:44;100150.25;;;24.42;97.31
9889;BME280;4983;42.112;24.738;2023-09-08T06:54:14;100136.78;;;24.59;95.12
9889;BME280;4983;42.112;24.738;2023-09-08T06:56:41;100132.16;;;24.77;95.28
9889;BME280;4983;42.112;24.738;2023-09-08T06:59:08;100149.31;;;24.92;96.15
9889;BME280;4983;42.112;24.738;2023-09-08T07:01:35;100147.75;;;25.03;94.64
9889;BME280;4983;42.112;24.738;2023-09-08T07:04:03;100144.41;;;24.94;93.58
9889;BME280;4983;42.112;24.738;2023-09-08T07:06:30;100134.06;;;25.08;90.22
9889;BME280;4983;42.112;24.738;2023-09-08T07:08:57;100144.50;;;25.37;90.67
9889;BME280;4983;42.112;24.738;2023-09-08T07:11:26;100140.78;;;25.25;87.50
9889;BME280;4983;42.112;24.738;2023-09-08T07:13:53;100138.63;;;25.20;88.20
9889;BME280;4983;42.112;24.738;2023-09-08T07:16:20;100119.09;;;25.58;84.23
9889;BME280;4983;42.112;24.738;2023-09-08T07:18:47;100122.69;;;25.65;84.61
9889;BME280;4983;42.112;24.738;2023-09-08T07:21:14;100116.16;;;25.53;84.49
9889;BME280;4983;42.112;24.738;2023-09-08T07:23:40;100123.28;;;25.85;85.42
9889;BME280;4983;42.112;24.738;2023-09-08T07:26:07;100108.66;;;26.14;83.14
9889;BME280;4983;42.112;24.738;2023-09-08T07:28:36;100116.16;;;26.43;82.79
9889;BME280;4983;42.112;24.738;2023-09-08T07:31:03;100096.69;;;26.61;79.42
9889;BME280;4983;42.112;24.738;2023-09-08T07:33:30;100083.53;;;26.68;78.31
9889;BME280;4983;42.112;24.738;2023-09-08T07:35:57;100086.97;;;26.93;78.81
9889;BME280;4983;42.112;24.738;2023-09-08T07:38:24;100058.31;;;26.69;73.19
9889;BME280;4983;42.112;24.738;2023-09-08T07:40:51;100038.19;;;26.44;72.21
9889;BME280;4983;42.112;24.738;2023-09-08T07:43:18;100057.94;;;26.66;74.27
9889;BME280;4983;42.112;24.738;2023-09-08T07:45:48;100051.44;;;26.72;73.20
9889;BME280;4983;42.112;24.738;2023-09-08T07:48:16;100059.63;;;26.67;73.71
9889;BME280;4983;42.112;24.738;2023-09-08T07:50:44;100060.72;;;26.66;75.08
9889;BME280;4983;42.112;24.738;2023-09-08T07:53:13;100053.41;;;26.83;73.76
9889;BME280;4983;42.112;24.738;2023-09-08T07:55:40;100043.69;;;26.74;71.19
9889;BME280;4983;42.112;24.738;2023-09-08T07:58:08;100047.09;;;26.87;71.44
9889;BME280;4983;42.112;24.738;2023-09-08T08:00:36;100023.50;;;26.55;65.32
9889;BME280;4983;42.112;24.738;2023-09-08T08:03:04;100023.38;;;26.62;67.73
9889;BME280;4983;42.112;24.738;2023-09-08T08:05:32;100058.22;;;26.46;73.25
9889;BME280;4983;42.112;24.738;2023-09-08T08:07:59;100056.72;;;26.73;73.43
9889;BME280;4983;42.112;24.738;2023-09-08T08:10:26;100052.91;;;26.86;71.27
9889;BME280;4983;42.112;24.738;2023-09-08T08:12:53;100048.19;;;26.86;72.12
9889;BME280;4983;42.112;24.738;2023-09-08T08:15:20;100042.00;;;26.73;70.78
9889;BME280;4983;42.112;24.738;2023-09-08T08:17:47;100031.13;;;26.60;68.45
9889;BME280;4983;42.112;24.738;2023-09-08T08:20:16;100042.78;;;27.03;69.23
9889;BME280;4983;42.112;24.738;2023-09-08T08:22:44;100027.53;;;27.40;68.08
9889;BME280;4983;42.112;24.738;2023-09-08T08:25:11;99999.44;;;27.64;65.79
9889;BME280;4983;42.112;24.738;2023-09-08T08:27:39;99975.34;;;27.42;60.70
9889;BME280;4983;42.112;24.738;2023-09-08T08:30:07;99979.22;;;27.69;60.20
9889;BME280;4983;42.112;24.738;2023-09-08T08:32:34;99968.97;;;27.69;57.98
9889;BME280;4983;42.112;24.738;2023-09-08T08:35:01;99989.38;;;27.86;61.78
9889;BME280;4983;42.112;24.738;2023-09-08T08:37:31;99992.22;;;28.03;63.77
9889;BME280;4983;42.112;24.738;2023-09-08T08:39:58;99996.38;;;28.45;63.02
9889;BME280;4983;42.112;24.738;2023-09-08T08:42:31;99991.25;;;28.86;63.42
9889;BME280;4983;42.112;24.738;2023-09-08T08:44:58;99972.16;;;28.78;61.58
9889;BME280;4983;42.112;24.738;2023-09-08T08:47:27;99967.31;;;28.41;56.71
9889;BME280;4983;42.112;24.738;2023-09-08T08:49:56;99974.84;;;28.73;58.06
9889;BME280;4983;42.112;24.738;2023-09-08T08:52:23;99969.78;;;28.70;59.54
9889;BME280;4983;42.112;24.738;2023-09-08T08:54:53;99957.59;;;28.93;55.66
9889;BME280;4983;42.112;24.738;2023-09-08T08:57:21;99955.94;;;28.75;56.12
9889;BME280;4983;42.112;24.738;2023-09-08T08:59:49;99966.91;;;28.65;55.30
9889;BME280;4983;42.112;24.738;2023-09-08T09:02:17;99974.66;;;28.47;56.77
9889;BME280;4983;42.112;24.738;2023-09-08T09:04:45;99950.13;;;28.44;53.36
9889;BME280;4983;42.112;24.738;2023-09-08T09:07:12;99957.78;;;28.70;55.06
9889;BME280;4983;42.112;24.738;2023-09-08T09:09:40;99957.38;;;28.78;55.46
9889;BME280;4983;42.112;24.738;2023-09-08T09:12:09;99958.56;;;28.98;55.61
9889;BME280;4983;42.112;24.738;2023-09-08T09:14:36;99945.69;;;29.14;53.72
9889;BME280;4983;42.112;24.738;2023-09-08T09:17:03;99952.50;;;29.23;53.74
9889;BME280;4983;42.112;24.738;2023-09-08T09:19:31;99927.69;;;29.21;53.32
9889;BME280;4983;42.112;24.738;2023-09-08T09:21:59;99949.16;;;28.88;55.25
9889;BME280;4983;42.112;24.738;2023-09-08T09:24:31;99941.22;;;29.13;52.84
9889;BME280;4983;42.112;24.738;2023-09-08T09:26:59;99938.31;;;29.24;52.88
9889;BME280;4983;42.112;24.738;2023-09-08T09:29:28;99931.69;;;29.30;49.47
9889;BME280;4983;42.112;24.738;2023-09-08T09:31:57;99921.72;;;29.34;52.14
9889;BME280;4983;42.112;24.738;2023-09-08T09:34:25;99907.22;;;29.54;49.55
9889;BME280;4983;42.112;24.738;2023-09-08T09:36:52;99901.34;;;29.34;49.54
9889;BME280;4983;42.112;24.738;2023-09-08T09:39:20;99909.63;;;29.29;49.25
9889;BME280;4983;42.112;24.738;2023-09-08T09:41:48;99900.50;;;29.33;50.75
9889;BME280;4983;42.112;24.738;2023-09-08T09:44:15;99920.34;;;29.37;52.30
9889;BME280;4983;42.112;24.738;2023-09-08T09:46:47;99922.84;;;29.55;55.44
9889;BME280;4983;42.112;24.738;2023-09-08T09:49:15;99903.16;;;29.66;49.16
9889;BME280;4983;42.112;24.738;2023-09-08T09:51:46;99879.41;;;29.64;47.51
9889;BME280;4983;42.112;24.738;2023-09-08T09:54:14;99878.72;;;29.78;48.62
9889;BME280;4983;42.112;24.738;2023-09-08T09:56:42;99893.16;;;29.97;48.46
9889;BME280;4983;42.112;24.738;2023-09-08T09:59:11;99880.09;;;30.02;45.91
9889;BME280;4983;42.112;24.738;2023-09-08T10:01:40;99874.69;;;29.64;47.17
9889;BME280;4983;42.112;24.738;2023-09-08T10:04:09;99873.84;;;30.17;46.10
9889;BME280;4983;42.112;24.738;2023-09-08T10:06:38;99855.44;;;30.21;46.15
9889;BME280;4983;42.112;24.738;2023-09-08T10:09:06;99891.41;;;30.12;49.27
9889;BME280;4983;42.112;24.738;2023-09-08T10:11:42;99846.44;;;30.45;44.18
9889;BME280;4983;42.112;24.738;2023-09-08T10:14:11;99833.03;;;30.47;44.20
9889;BME280;4983;42.112;24.738;2023-09-08T10:16:39;99826.91;;;29.87;43.56
9889;BME280;4983;42.112;24.738;2023-09-08T10:19:09;99830.91;;;29.70;44.92
9889;BME280;4983;42.112;24.738;2023-09-08T10:21:40;99847.53;;;29.38;48.06
9889;BME280;4983;42.112;24.738;2023-09-08T10:24:14;99850.50;;;29.27;47.27
9889;BME280;4983;42.112;24.738;2023-09-08T10:26:44;99849.31;;;29.23;46.76
9889;BME280;4983;42.112;24.738;2023-09-08T10:29:13;99857.97;;;28.83;48.91
9889;BME280;4983;42.112;24.738;2023-09-08T10:31:42;99859.31;;;29.19;48.73
9889;BME280;4983;42.112;24.738;2023-09-08T10:34:11;99863.28;;;29.44;48.27
9889;BME280;4983;42.112;24.738;2023-09-08T10:36:38;99836.28;;;28.69;47.03
9889;BME280;4983;42.112;24.738;2023-09-08T10:39:28;99865.09;;;28.58;51.31
9889;BME280;4983;42.112;24.738;2023-09-08T10:42:20;99847.16;;;28.49;46.89
9889;BME280;4983;42.112;24.738;2023-09-08T10:44:58;99849.06;;;28.32;48.38
9889;BME280;4983;42.112;24.738;2023-09-08T10:47:31;99861.50;;;28.57;49.66
9889;BME280;4983;42.112;24.738;2023-09-08T10:50:04;99852.97;;;28.85;48.16
9889;BME280;4983;42.112;24.738;2023-09-08T10:52:32;99826.19;;;28.63;45.04
9889;BME280;4983;42.112;24.738;2023-09-08T10:55:01;99845.88;;;28.40;48.17
9889;BME280;4983;42.112;24.738;2023-09-08T10:57:28;99853.28;;;28.34;50.75
9889;BME280;4983;42.112;24.738;2023-09-08T11:00:00;99867.97;;;28.63;52.54
9889;BME280;4983;42.112;24.738;2023-09-08T11:02:35;99853.06;;;28.52;50.89
9889;BME280;4983;42.112;24.738;2023-09-08T11:05:06;99837.00;;;28.59;48.33
9889;BME280;4983;42.112;24.738;2023-09-08T11:07:35;99824.97;;;28.75;48.13
9889;BME280;4983;42.112;24.738;2023-09-08T11:10:03;99809.28;;;28.69;47.66
9889;BME280;4983;42.112;24.738;2023-09-08T11:12:32;99834.16;;;28.76;50.88
9889;BME280;4983;42.112;24.738;2023-09-08T11:15:02;99831.38;;;28.76;49.96
9889;BME280;4983;42.112;24.738;2023-09-08T11:17:30;99833.63;;;28.41;49.56
9889;BME280;4983;42.112;24.738;2023-09-08T11:19:58;99821.63;;;28.57;50.57
9889;BME280;4983;42.112;24.738;2023-09-08T11:22:26;99830.22;;;28.72;53.20
9889;BME280;4983;42.112;24.738;2023-09-08T11:24:56;99812.31;;;28.68;50.57
9889;BME280;4983;42.112;24.738;2023-09-08T11:27:24;99817.25;;;28.61;52.43
9889;BME280;4983;42.112;24.738;2023-09-08T11:29:51;99822.38;;;28.69;52.21
9889;BME280;4983;42.112;24.738;2023-09-08T11:32:18;99821.09;;;28.76;54.47
9889;BME280;4983;42.112;24.738;2023-09-08T11:34:45;99825.03;;;28.80;53.90
9889;BME280;4983;42.112;24.738;2023-09-08T11:37:13;99827.59;;;28.65;54.64
9889;BME280;4983;42.112;24.738;2023-09-08T11:39:43;99815.97;;;28.68;53.70
9889;BME280;4983;42.112;24.738;2023-09-08T11:42:12;99791.00;;;28.78;50.27
9889;BME280;4983;42.112;24.738;2023-09-08T11:44:40;99783.88;;;28.66;48.97
9889;BME280;4983;42.112;24.738;2023-09-08T11:47:08;99783.22;;;28.59;49.50
9889;BME280;4983;42.112;24.738;2023-09-08T11:49:36;99784.69;;;28.45;51.91
9889;BME280;4983;42.112;24.738;2023-09-08T11:52:04;99800.19;;;28.57;53.75
9889;BME280;4983;42.112;24.738;2023-09-08T11:54:31;99793.59;;;28.63;52.02
9889;BME280;4983;42.112;24.738;2023-09-08T11:57:01;99778.25;;;28.61;48.97
9889;BME280;4983;42.112;24.738;2023-09-08T11:59:31;99755.94;;;28.61;48.97
9889;BME280;4983;42.112;24.738;2023-09-08T12:01:59;99766.31;;;28.65;50.31
9889;BME280;4983;42.112;24.738;2023-09-08T12:04:26;99765.75;;;28.47;49.50
9889;BME280;4983;42.112;24.738;2023-09-08T12:06:54;99756.84;;;28.45;50.53
9889;BME280;4983;42.112;24.738;2023-09-08T12:09:22;99765.66;;;28.37;50.24
9889;BME280;4983;42.112;24.738;2023-09-08T12:11:49;99797.25;;;28.47;55.50
9889;BME280;4983;42.112;24.738;2023-09-08T12:14:19;99783.56;;;28.62;55.11
9889;BME280;4983;42.112;24.738;2023-09-08T12:16:46;99767.50;;;29.12;51.67
9889;BME280;4983;42.112;24.738;2023-09-08T12:19:32;99713.25;;;29.51;46.99
9889;BME280;4983;42.112;24.738;2023-09-08T12:22:00;99722.16;;;29.80;44.33
9889;BME280;4983;42.112;24.738;2023-09-08T12:24:46;99684.00;;;29.90;41.92
9889;BME280;4983;42.112;24.738;2023-09-08T12:27:14;99693.66;;;29.73;43.62
9889;BME280;4983;42.112;24.738;2023-09-08T12:29:51;99678.19;;;29.34;42.74
9889;BME280;4983;42.112;24.738;2023-09-08T12:32:18;99687.06;;;29.26;43.08
9889;BME280;4983;42.112;24.738;2023-09-08T12:34:46;99691.47;;;29.22;43.60
9889;BME280;4983;42.112;24.738;2023-09-08T12:37:13;99710.41;;;29.46;46.81
9889;BME280;4983;42.112;24.738;2023-09-08T12:39:40;99697.59;;;29.82;46.28
9889;BME280;4983;42.112;24.738;2023-09-08T12:42:08;99701.53;;;30.17;44.76
9889;BME280;4983;42.112;24.738;2023-09-08T12:44:35;99657.66;;;30.13;39.80
9889;BME280;4983;42.112;24.738;2023-09-08T12:47:03;99660.91;;;30.46;40.68
9889;BME280;4983;42.112;24.738;2023-09-08T12:49:31;99664.16;;;30.28;42.08
9889;BME280;4983;42.112;24.738;2023-09-08T12:51:57;99663.94;;;30.40;40.48
9889;BME280;4983;42.112;24.738;2023-09-08T12:54:25;99658.03;;;30.31;38.80
9889;BME280;4983;42.112;24.738;2023-09-08T12:56:53;99646.75;;;30.11;39.73
9889;BME280;4983;42.112;24.738;2023-09-08T12:59:20;99662.00;;;29.99;41.42
9889;BME280;4983;42.112;24.738;2023-09-08T13:01:47;99679.13;;;29.76;42.78
9889;BME280;4983;42.112;24.738;2023-09-08T13:04:15;99670.38;;;29.57;42.26
9889;BME280;4983;42.112;24.738;2023-09-08T13:06:44;99664.38;;;29.75;41.18